Lokaal brand risico:
CBI


Regionaal brand risico: Meer informatie


Weerstation
Sluispark-LeuvenLeuven-Sluispark



Het weer levert geen direct gevaar op.    Er zijn geen waarschuwingen afgegeven.

Nabijgelegen vliegvelden - METAR rapporten

   
EBBR - Wilsele bij Leuven
Gewijzigd: 16-06-2019 07:50
Licht bewolkt    Wind: ZW 16.7 km/h
Licht bewolkt
Wind: Wind: ZW 16.7 km/h
Temperatuur: 15°C
Dauwpunt: 11°C
Vochtigheid: 77%
Barometer: 1019 hPa
Bewolking: Licht bewolkt
Zicht: meer dan 10 km
Bewolking: Licht bewolkt 914.4 m
EBBR 160550Z 22009KT 9999 FEW030 15/11 Q1019 NOSIG
EBAW - Antwerp
Gewijzigd: 16-06-2019 08:20
Licht bewolkt    Wind: ZW 14.8 km/h
Licht bewolkt
Wind: Wind: ZW 14.8 km/h
Temperatuur: 16°C
Dauwpunt: 12°C
Vochtigheid: 77%
Barometer: 1019 hPa
Bewolking: Licht bewolkt
Zicht: meer dan 10 km
Bewolking: Licht bewolkt 548.6 m
EBAW 160620Z 23008KT 9999 FEW018 16/12 Q1019 NOSIG
EBLG - Li├Ęge
Gewijzigd: 16-06-2019 08:20
Licht bewolkt    Wind: ZW 22.2 km/h
Licht bewolkt
Wind: Wind: ZW 22.2 km/h
Temperatuur: 15°C
Dauwpunt: 11°C
Vochtigheid: 77%
Barometer: 1020 hPa
Bewolking: Licht bewolkt
Zicht: meer dan 10 km
Bewolking: Licht bewolkt 609.6 m
EBLG 160620Z 23012KT 9999 FEW020 15/11 Q1020 NOSIG
EBCV - Mons/Bergen
Gewijzigd: 16-06-2019 07:55
Grotendeels bewolkt    Wind: ZZW 16.7 km/h
Grotendeels bewolkt
Wind: Wind: ZZW 16.7 km/h
Temperatuur: 15°C
Dauwpunt: 12°C
Vochtigheid: 82%
Barometer: 1019 hPa
Bewolking: Grotendeels bewolkt
Bewolking: Grotendeels bewolkt 914.4 m,
Grotendeels bewolkt 1645.9 m,
Grotendeels bewolkt 2499.4 m
EBCV 160555Z AUTO 20009KT //// BKN030/// BKN054/// BKN082/// 15/12 Q1019 BLU
EHBK - Maastricht
Gewijzigd: 16-06-2019 08:25
Gedeeltelijk bewolkt    Wind: ZW 22.2 km/h
Gedeeltelijk bewolkt
Wind: Wind: ZW 22.2 km/h
Temperatuur: 16°C
Dauwpunt: 11°C
Vochtigheid: 72%
Barometer: 1019 hPa
Bewolking: Gedeeltelijk bewolkt
Zicht: meer dan 10 km
Bewolking: Gedeeltelijk bewolkt 762 m
EHBK 160625Z AUTO 23012KT 200V270 9999 SCT025 16/11 Q1019 NOSIG
ELLX - Luxemburg
Gewijzigd: 16-06-2019 08:20
Helder    Wind: Westen 11.1 km/h
Helder
Wind: Wind: Westen 11.1 km/h
Temperatuur: 15°C
Dauwpunt: 10°C
Vochtigheid: 72%
Barometer: 1021 hPa
Zicht: meer dan 10 km
Bewolking: Helder
ELLX 160620Z 27006KT 240V300 CAVOK 15/10 Q1021 NOSIG
EBOS - Oostende
Gewijzigd: 16-06-2019 08:20
Licht bewolkt    Wind: ZW 14.8 km/h
Licht bewolkt
Wind: Wind: ZW 14.8 km/h
Temperatuur: 15°C
Dauwpunt: 12°C
Vochtigheid: 82%
Barometer: 1019 hPa
Bewolking: Licht bewolkt
Zicht: meer dan 10 km
Bewolking: Licht bewolkt 274.3 m
EBOS 160620Z 23008KT 200V260 9999 FEW009 15/12 Q1019 NOSIG
  

Script ontwikkeld door  Saratoga-weather.org Aangepast voor de template door  Weerstation Leuven

U vindt ons ook hier:

UK Metoffice

WeatherCloud

European Weather Network

Weather Underground

Benelux Weather Network

AWEKAS

WeatherlinkIP

Het Weer Aktueel

Apparatuur in gebruik:

Weer-station
Davis VP2 weatherstation

Weer-programma
Meteobridge

Weer-computer
D-Link DIR-505

Webleverancier
Robohost

Davis VP2 weatherstation

Meteobridge

D-Link DIR-505

Robohost